Mc Faddin, Texas
Current Conditions -  °F | °C
As of 9:15 AM on Thursday 23 Oct 2014 (Local Time) from KPKV Reporting Station
Clear Clear  
Wind Chill: 67°   Ceiling: Unl
Heat Index: 67°   Visibility: 10mi
Dew Point: 62°   Wind: 8mph
Humidity: 83%   Direction: 50°NE
Pressure: 30.11"   Gusts: NA
Location:  28.5526°N, 97.018°W
Report Text: KPKV 231415Z AUTO 05007KT 10SM CLR 20/17 A3011 RMK AO2 T01950165
Loading
Personal Weather Stations






























Interactive Weather Map New forecast layout! Learn more

10-Day Weather Forecast

Advertisements
Track Severe Weather on mobile